createdAt,value
2018-12-25T00:01:08.329Z,7.60
2018-12-25T00:03:35.668Z,7.70
2018-12-25T00:06:03.219Z,8.10
2018-12-25T00:08:30.548Z,7.37
2018-12-25T00:10:57.857Z,8.17
2018-12-25T00:13:25.181Z,7.90
2018-12-25T00:15:52.639Z,7.73
2018-12-25T00:18:19.970Z,7.87
2018-12-25T00:23:41.015Z,7.30
2018-12-25T00:26:08.673Z,7.17
2018-12-25T00:28:36.233Z,7.77
2018-12-25T00:31:03.551Z,10.37
2018-12-25T00:33:31.146Z,7.57
2018-12-25T00:35:58.517Z,8.00
2018-12-25T00:38:25.851Z,8.00
2018-12-25T00:40:53.170Z,7.70
2018-12-25T00:43:20.557Z,8.27
2018-12-25T00:45:48.226Z,7.87
2018-12-25T00:48:15.553Z,7.90
2018-12-25T00:50:42.853Z,8.10
2018-12-25T00:53:10.179Z,8.97
2018-12-25T00:55:37.766Z,8.40
2018-12-25T00:58:05.105Z,9.03
2018-12-25T01:00:32.754Z,8.07
2018-12-25T01:03:00.310Z,8.83
2018-12-25T01:05:27.638Z,8.43
2018-12-25T01:07:54.968Z,8.17
2018-12-25T01:10:22.578Z,8.53
2018-12-25T01:12:49.910Z,7.83
2018-12-25T01:15:17.211Z,7.83
2018-12-25T01:17:44.553Z,7.73
2018-12-25T01:20:11.855Z,7.67
2018-12-25T01:22:39.162Z,8.27
2018-12-25T01:25:06.497Z,8.13
2018-12-25T01:27:33.814Z,7.70
2018-12-25T01:30:01.147Z,7.60
2018-12-25T01:32:28.474Z,7.67
2018-12-25T01:34:56.224Z,7.57
2018-12-25T01:37:23.542Z,7.43
2018-12-25T01:39:50.894Z,7.47
2018-12-25T01:42:18.198Z,7.53
2018-12-25T01:44:45.526Z,8.17
2018-12-25T01:47:12.829Z,8.00
2018-12-25T01:49:40.443Z,7.73
2018-12-25T01:52:07.747Z,7.43
2018-12-25T01:54:35.055Z,7.73
2018-12-25T01:57:02.387Z,7.20
2018-12-25T01:59:29.694Z,7.77
2018-12-25T02:01:57.007Z,7.87
2018-12-25T02:04:24.346Z,7.33
2018-12-25T02:06:51.653Z,7.47
2018-12-25T02:09:18.982Z,7.07
2018-12-25T02:11:46.309Z,7.63
2018-12-25T02:14:13.982Z,8.20
2018-12-25T02:16:41.289Z,7.47
2018-12-25T02:19:08.902Z,7.23
2018-12-25T02:21:36.305Z,7.60
2018-12-25T02:24:03.695Z,7.40
2018-12-25T02:26:31.006Z,7.43
2018-12-25T02:28:58.342Z,7.80
2018-12-25T02:31:25.643Z,6.90
2018-12-25T02:33:53.222Z,7.10
2018-12-25T02:36:20.529Z,7.00
2018-12-25T02:38:47.870Z,7.43
2018-12-25T02:41:15.242Z,7.40
2018-12-25T02:43:42.843Z,7.43
2018-12-25T02:46:10.167Z,7.40
2018-12-25T02:48:37.475Z,7.33
2018-12-25T02:51:05.107Z,6.77
2018-12-25T02:53:32.417Z,7.27
2018-12-25T02:55:59.971Z,7.07
2018-12-25T02:58:27.684Z,7.23
2018-12-25T03:00:54.994Z,7.33
2018-12-25T03:03:22.321Z,7.30
2018-12-25T03:05:49.947Z,6.70
2018-12-25T03:08:17.255Z,6.50
2018-12-25T03:10:44.966Z,6.67
2018-12-25T03:13:12.307Z,6.77
2018-12-25T03:15:39.885Z,7.57
2018-12-25T03:18:07.190Z,6.97
2018-12-25T03:20:34.532Z,6.77
2018-12-25T03:23:01.828Z,6.67
2018-12-25T03:25:29.263Z,7.00
2018-12-25T03:27:56.577Z,7.30
2018-12-25T03:30:23.884Z,7.17
2018-12-25T03:32:51.203Z,7.13
2018-12-25T03:35:18.521Z,7.57
2018-12-25T03:37:45.838Z,8.03
2018-12-25T03:40:13.170Z,7.53
2018-12-25T03:42:40.771Z,7.40
2018-12-25T03:45:08.101Z,7.30
2018-12-25T03:47:35.431Z,7.50
2018-12-25T03:52:56.326Z,6.93
2018-12-25T03:55:23.634Z,7.20
2018-12-25T03:57:50.967Z,7.50
2018-12-25T04:00:18.294Z,7.57
2018-12-25T04:02:45.627Z,7.17
2018-12-25T04:05:13.266Z,7.73
2018-12-25T04:07:40.823Z,7.27
2018-12-25T04:10:08.148Z,7.67
2018-12-25T04:12:35.581Z,8.27
2018-12-25T04:15:02.946Z,7.57
2018-12-25T04:17:30.546Z,7.93
2018-12-25T04:19:57.851Z,8.93
2018-12-25T04:22:25.250Z,8.93
2018-12-25T04:24:52.810Z,8.10
2018-12-25T04:27:20.470Z,11.40
2018-12-25T04:29:48.137Z,9.23
2018-12-25T04:32:15.881Z,7.30
2018-12-25T04:34:43.406Z,6.57
2018-12-25T04:37:10.787Z,6.63
2018-12-25T04:39:38.089Z,7.60
2018-12-25T04:42:05.417Z,7.17
2018-12-25T04:44:32.753Z,6.87
2018-12-25T04:47:00.067Z,6.73
2018-12-25T04:49:27.362Z,6.80
2018-12-25T04:51:54.694Z,7.27
2018-12-25T04:54:22.071Z,6.83
2018-12-25T04:56:49.401Z,6.70
2018-12-25T04:59:16.729Z,6.50
2018-12-25T05:01:44.059Z,7.20
2018-12-25T05:04:11.370Z,7.43
2018-12-25T05:06:38.679Z,6.80
2018-12-25T05:11:59.371Z,6.53
2018-12-25T05:14:26.696Z,6.33
2018-12-25T05:16:53.999Z,6.10
2018-12-25T05:19:21.328Z,6.03
2018-12-25T05:21:48.629Z,6.60
2018-12-25T05:24:16.230Z,6.57
2018-12-25T05:26:43.537Z,6.00
2018-12-25T05:29:10.870Z,6.23
2018-12-25T05:31:38.198Z,5.83
2018-12-25T05:34:05.861Z,6.33
2018-12-25T05:36:33.172Z,6.20
2018-12-25T05:39:00.500Z,6.20
2018-12-25T05:41:27.817Z,5.67
2018-12-25T05:43:55.465Z,6.13
2018-12-25T05:46:22.922Z,5.97
2018-12-25T05:48:51.920Z,6.10
2018-12-25T05:51:19.251Z,5.60
2018-12-25T05:53:46.558Z,5.87
2018-12-25T05:56:13.895Z,6.37
2018-12-25T05:58:41.209Z,6.00
2018-12-25T06:01:08.649Z,6.00
2018-12-25T06:03:36.248Z,5.60
2018-12-25T06:06:03.586Z,5.23
2018-12-25T06:08:30.891Z,5.80
2018-12-25T06:10:58.192Z,5.80
2018-12-25T06:13:25.745Z,6.40
2018-12-25T06:15:53.070Z,6.20
2018-12-25T06:18:20.370Z,5.70
2018-12-25T06:20:55.073Z,6.20
2018-12-25T06:23:17.071Z,5.77
2018-12-25T06:25:44.686Z,7.50
2018-12-25T06:28:12.347Z,6.90
2018-12-25T06:30:39.654Z,5.90
2018-12-25T06:33:06.995Z,5.30
2018-12-25T06:35:34.285Z,6.40
2018-12-25T06:38:01.610Z,6.70
2018-12-25T06:40:28.938Z,7.13
2018-12-25T06:42:56.242Z,7.00
2018-12-25T06:45:23.546Z,6.03
2018-12-25T06:47:50.881Z,5.87
2018-12-25T06:50:18.525Z,5.93
2018-12-25T06:52:45.858Z,6.40
2018-12-25T06:55:13.181Z,6.17
2018-12-25T06:57:40.804Z,6.10
2018-12-25T07:00:08.455Z,6.37
2018-12-25T07:02:35.763Z,6.43
2018-12-25T07:05:03.085Z,5.80
2018-12-25T07:07:30.394Z,6.37
2018-12-25T07:09:57.970Z,6.93
2018-12-25T07:12:25.323Z,6.27
2018-12-25T07:14:52.637Z,6.50
2018-12-25T07:17:19.953Z,6.00
2018-12-25T07:19:47.266Z,5.40
2018-12-25T07:22:14.842Z,5.63
2018-12-25T07:24:42.147Z,5.63
2018-12-25T07:27:09.455Z,5.73
2018-12-25T07:29:36.778Z,5.10
2018-12-25T07:32:04.110Z,5.83
2018-12-25T07:34:31.408Z,5.47
2018-12-25T07:36:58.785Z,5.53
2018-12-25T07:39:26.114Z,5.80
2018-12-25T07:41:53.424Z,5.80
2018-12-25T07:44:20.734Z,6.50
2018-12-25T07:46:48.377Z,6.10
2018-12-25T07:51:49.331Z,6.13
2018-12-25T07:54:16.894Z,6.00
2018-12-25T07:56:44.547Z,5.90
2018-12-25T07:59:12.111Z,5.87
2018-12-25T08:01:39.419Z,6.50
2018-12-25T08:04:06.750Z,6.90
2018-12-25T08:06:34.047Z,7.17
2018-12-25T08:09:01.631Z,6.20
2018-12-25T08:11:28.933Z,7.30
2018-12-25T08:13:56.266Z,7.20
2018-12-25T08:16:23.607Z,7.43
2018-12-25T08:18:51.251Z,7.77
2018-12-25T08:21:18.560Z,7.00
2018-12-25T08:23:45.886Z,7.00
2018-12-25T08:26:13.193Z,6.17
2018-12-25T08:28:40.522Z,5.90
2018-12-25T08:31:08.241Z,5.93
2018-12-25T08:33:37.046Z,6.37
2018-12-25T08:36:04.354Z,6.63
2018-12-25T08:38:32.025Z,5.80
2018-12-25T08:40:59.398Z,6.00
2018-12-25T08:43:26.754Z,6.50
2018-12-25T08:45:54.103Z,6.40
2018-12-25T08:48:21.449Z,6.13
2018-12-25T08:50:49.001Z,6.23
2018-12-25T08:53:16.322Z,7.13
2018-12-25T08:55:43.910Z,6.87
2018-12-25T08:58:11.218Z,5.93
2018-12-25T09:00:38.549Z,7.10
2018-12-25T09:03:06.174Z,7.63
2018-12-25T09:05:33.849Z,6.87
2018-12-25T09:08:01.167Z,6.77
2018-12-25T09:10:28.486Z,7.53
2018-12-25T09:12:56.102Z,8.20
2018-12-25T09:15:23.665Z,6.93
2018-12-25T09:17:50.999Z,6.90
2018-12-25T09:20:18.572Z,6.73
2018-12-25T09:22:46.047Z,6.07
2018-12-25T09:25:13.343Z,6.60
2018-12-25T09:27:40.942Z,6.83
2018-12-25T09:33:02.080Z,6.13
2018-12-25T09:35:29.382Z,7.43
2018-12-25T09:37:56.986Z,7.07
2018-12-25T09:40:24.290Z,6.97
2018-12-25T09:42:51.626Z,7.77
2018-12-25T09:45:18.946Z,7.23
2018-12-25T09:47:46.498Z,6.37
2018-12-25T09:50:13.830Z,7.03
2018-12-25T09:52:41.160Z,6.83
2018-12-25T09:55:08.465Z,7.60
2018-12-25T09:57:36.126Z,7.00
2018-12-25T10:02:56.949Z,7.27
2018-12-25T10:05:24.598Z,7.57
2018-12-25T10:07:51.958Z,7.67
2018-12-25T10:10:19.266Z,7.50
2018-12-25T10:12:46.574Z,8.27
2018-12-25T10:15:13.898Z,7.43
2018-12-25T10:17:41.222Z,7.50
2018-12-25T10:20:08.554Z,7.47
2018-12-25T10:22:35.867Z,8.20
2018-12-25T10:25:03.432Z,8.77
2018-12-25T10:27:30.754Z,11.67
2018-12-25T10:29:58.065Z,10.17
2018-12-25T10:32:25.406Z,11.90
2018-12-25T10:34:52.743Z,9.03
2018-12-25T10:37:20.050Z,9.73
2018-12-25T10:39:47.374Z,9.17
2018-12-25T10:42:15.005Z,9.70
2018-12-25T10:44:42.562Z,8.97
2018-12-25T10:47:09.950Z,9.97
2018-12-25T10:49:37.390Z,9.20
2018-12-25T10:52:11.514Z,9.60
2018-12-25T10:54:34.335Z,9.70
2018-12-25T10:57:01.643Z,9.87
2018-12-25T10:59:29.250Z,10.07
2018-12-25T11:01:56.906Z,10.30
2018-12-25T11:04:24.470Z,10.83
2018-12-25T11:06:51.886Z,11.13
2018-12-25T11:09:19.490Z,10.97
2018-12-25T11:11:46.802Z,10.67
2018-12-25T11:14:14.498Z,12.27
2018-12-25T11:16:41.806Z,17.87
2018-12-25T11:19:09.407Z,10.87
2018-12-25T11:21:36.808Z,9.43
2018-12-25T11:24:04.145Z,8.90
2018-12-25T11:26:31.453Z,10.27
2018-12-25T11:28:58.770Z,9.80
2018-12-25T11:31:26.412Z,9.50
2018-12-25T11:33:53.862Z,9.60
2018-12-25T11:36:21.194Z,9.37
2018-12-25T11:38:48.510Z,10.60
2018-12-25T11:41:16.102Z,10.00
2018-12-25T11:43:43.430Z,9.63
2018-12-25T11:46:10.738Z,9.20
2018-12-25T11:48:38.078Z,9.00
2018-12-25T11:51:05.429Z,8.77
2018-12-25T11:53:33.082Z,10.33
2018-12-25T11:56:00.638Z,8.23
2018-12-25T11:58:39.809Z,9.27
2018-12-25T12:00:57.246Z,8.30
2018-12-25T12:03:24.643Z,9.20
2018-12-25T12:05:52.202Z,8.83
2018-12-25T12:08:19.557Z,8.53
2018-12-25T12:10:47.217Z,8.67
2018-12-25T12:13:14.555Z,9.20
2018-12-25T12:15:41.862Z,9.07
2018-12-25T12:18:09.482Z,8.77
2018-12-25T12:20:36.865Z,8.83
2018-12-25T12:23:04.497Z,8.60
2018-12-25T12:25:32.059Z,9.13
2018-12-25T12:27:59.390Z,9.27
2018-12-25T12:30:26.701Z,10.03
2018-12-25T12:32:54.034Z,8.57
2018-12-25T12:35:21.674Z,9.57
2018-12-25T12:37:49.018Z,8.70
2018-12-25T12:40:16.593Z,8.53
2018-12-25T12:42:43.903Z,7.60
2018-12-25T12:45:11.248Z,8.63
2018-12-25T12:50:50.086Z,7.97
2018-12-25T12:53:17.478Z,7.70
2018-12-25T12:55:44.791Z,7.50
2018-12-25T12:58:12.375Z,8.23
2018-12-25T13:00:39.710Z,7.83
2018-12-25T13:03:07.055Z,9.03
2018-12-25T13:05:34.362Z,8.73
2018-12-25T13:08:01.670Z,8.83
2018-12-25T13:10:29.023Z,8.70
2018-12-25T13:12:57.438Z,9.27
2018-12-25T13:15:24.747Z,8.77
2018-12-25T13:17:52.078Z,9.73
2018-12-25T13:20:19.395Z,9.33
2018-12-25T13:22:54.011Z,9.97
2018-12-25T13:25:16.262Z,9.50
2018-12-25T13:27:43.606Z,8.87
2018-12-25T13:30:10.941Z,8.73
2018-12-25T13:32:38.347Z,9.47
2018-12-25T13:35:05.747Z,9.93
2018-12-25T13:37:33.176Z,9.70
2018-12-25T13:40:00.490Z,10.53
2018-12-25T13:42:27.830Z,11.87
2018-12-25T13:44:55.266Z,11.17
2018-12-25T13:47:22.578Z,9.97
2018-12-25T13:49:57.422Z,9.33
2018-12-25T13:52:25.041Z,8.70
2018-12-25T13:54:52.350Z,7.67
2018-12-25T13:57:19.678Z,7.60
2018-12-25T13:59:46.989Z,8.20
2018-12-25T14:02:14.316Z,7.77
2018-12-25T14:04:41.625Z,7.67
2018-12-25T14:07:08.962Z,7.43
2018-12-25T14:09:36.514Z,7.53
2018-12-25T14:14:58.692Z,6.23
2018-12-25T14:17:26.001Z,5.83
2018-12-25T14:19:53.698Z,6.27
2018-12-25T14:22:21.350Z,7.97
2018-12-25T14:24:49.135Z,7.87
2018-12-25T14:27:16.417Z,8.50
2018-12-25T14:29:43.745Z,9.27
2018-12-25T14:32:11.082Z,9.57
2018-12-25T14:34:38.724Z,9.83
2018-12-25T14:37:06.041Z,9.17
2018-12-25T14:39:33.351Z,9.80
2018-12-25T14:42:00.702Z,9.03
2018-12-25T14:44:28.035Z,8.53
2018-12-25T14:46:55.346Z,9.13
2018-12-25T14:49:22.678Z,9.00
2018-12-25T14:52:01.752Z,9.10
2018-12-25T14:54:19.296Z,9.27
2018-12-25T14:56:46.605Z,9.27
2018-12-25T14:59:13.926Z,9.30
2018-12-25T15:01:41.257Z,9.13
2018-12-25T15:04:08.568Z,9.27
2018-12-25T15:06:35.908Z,9.20
2018-12-25T15:12:10.487Z,9.57
2018-12-25T15:14:37.797Z,9.10
2018-12-25T15:17:05.418Z,9.93
2018-12-25T15:19:32.753Z,9.57
2018-12-25T15:22:00.064Z,9.43
2018-12-25T15:24:27.403Z,9.83
2018-12-25T15:26:54.746Z,8.73
2018-12-25T15:29:23.462Z,8.27
2018-12-25T15:31:51.381Z,8.47
2018-12-25T15:34:18.690Z,8.63
2018-12-25T15:36:46.018Z,7.67
2018-12-25T15:39:13.650Z,8.20
2018-12-25T15:41:41.309Z,9.20
2018-12-25T15:44:08.650Z,11.40
2018-12-25T15:46:35.955Z,8.70
2018-12-25T15:49:03.291Z,9.93
2018-12-25T15:51:30.601Z,9.37
2018-12-25T15:53:57.927Z,9.20
2018-12-25T15:56:25.266Z,10.20
2018-12-25T15:58:52.582Z,12.87
2018-12-25T16:01:19.918Z,11.40
2018-12-25T16:03:47.494Z,13.27
2018-12-25T16:06:14.840Z,17.60
2018-12-25T16:08:42.402Z,16.83
2018-12-25T16:11:09.962Z,11.47
2018-12-25T16:13:37.304Z,11.27
2018-12-25T16:16:04.628Z,9.73
2018-12-25T16:18:31.962Z,9.90
2018-12-25T16:20:59.274Z,10.40
2018-12-25T16:23:26.610Z,10.67
2018-12-25T16:25:54.294Z,10.90
2018-12-25T16:28:21.631Z,11.80
2018-12-25T16:30:48.993Z,11.33
2018-12-25T16:33:16.307Z,12.30
2018-12-25T16:35:43.641Z,12.90
2018-12-25T16:38:10.983Z,12.27
2018-12-25T16:40:38.621Z,12.57
2018-12-25T16:43:05.965Z,12.47
2018-12-25T16:45:33.269Z,12.57
2018-12-25T16:48:00.882Z,13.07
2018-12-25T16:50:28.229Z,13.73
2018-12-25T16:52:55.546Z,13.13
2018-12-25T16:55:22.861Z,13.10
2018-12-25T16:57:50.197Z,13.10
2018-12-25T17:00:17.508Z,12.03
2018-12-25T17:05:18.034Z,25.13
2018-12-25T17:07:45.342Z,15.90
2018-12-25T17:10:13.007Z,14.70
2018-12-25T17:12:40.325Z,14.60
2018-12-25T17:15:27.005Z,14.30
2018-12-25T17:17:54.325Z,14.67
2018-12-25T17:20:21.665Z,16.53
2018-12-25T17:22:49.299Z,18.87
2018-12-25T17:25:18.272Z,18.10
2018-12-25T17:27:45.882Z,16.97
2018-12-25T17:30:13.210Z,18.50
2018-12-25T17:32:40.562Z,15.77
2018-12-25T17:35:08.150Z,15.77
2018-12-25T17:37:35.465Z,15.77
2018-12-25T17:40:02.819Z,14.53
2018-12-25T17:42:30.417Z,14.07
2018-12-25T17:44:58.086Z,13.00
2018-12-25T17:47:25.419Z,14.83
2018-12-25T17:49:52.753Z,15.13
2018-12-25T17:52:20.066Z,17.20
2018-12-25T17:54:47.397Z,16.43
2018-12-25T17:57:14.795Z,16.70
2018-12-25T17:59:43.775Z,17.37
2018-12-25T18:02:11.086Z,19.93
2018-12-25T18:04:38.397Z,20.17
2018-12-25T18:07:05.734Z,18.60
2018-12-25T18:09:33.078Z,16.30
2018-12-25T18:12:00.422Z,14.67
2018-12-25T18:14:27.731Z,14.20
2018-12-25T18:16:55.033Z,14.37
2018-12-25T18:19:22.371Z,13.13
2018-12-25T18:21:49.682Z,12.53
2018-12-25T18:24:19.423Z,12.93
2018-12-25T18:26:46.094Z,13.70
2018-12-25T18:29:13.410Z,13.07
2018-12-25T18:31:40.749Z,17.30
2018-12-25T18:34:08.061Z,27.33
2018-12-25T18:36:35.693Z,28.83
2018-12-25T18:41:37.393Z,27.93
2018-12-25T18:44:04.704Z,27.70
2018-12-25T18:46:32.365Z,25.33
2018-12-25T18:48:59.927Z,22.63
2018-12-25T18:51:27.262Z,18.30
2018-12-25T18:53:54.602Z,14.33
2018-12-25T18:56:21.914Z,15.50
2018-12-25T18:58:49.254Z,15.63
2018-12-25T19:01:16.903Z,16.33
2018-12-25T19:03:44.209Z,14.47
2018-12-25T19:06:11.806Z,14.10
2018-12-25T19:08:39.195Z,14.73
2018-12-25T19:11:06.573Z,14.47
2018-12-25T19:13:33.890Z,14.13
2018-12-25T19:16:01.225Z,14.73
2018-12-25T19:18:28.538Z,14.90
2018-12-25T19:20:55.869Z,15.47
2018-12-25T19:23:23.218Z,15.87
2018-12-25T19:25:50.847Z,15.90
2018-12-25T19:28:18.158Z,18.93
2018-12-25T19:30:45.501Z,17.70
2018-12-25T19:33:13.110Z,17.00
2018-12-25T19:35:40.429Z,17.67
2018-12-25T19:38:07.765Z,18.10
2018-12-25T19:40:35.382Z,19.40
2018-12-25T19:43:02.717Z,20.20
2018-12-25T19:48:23.999Z,21.43
2018-12-25T19:50:51.301Z,21.73
2018-12-25T19:53:18.657Z,20.70
2018-12-25T19:55:45.967Z,20.70
2018-12-25T19:58:13.279Z,30.70
2018-12-25T20:00:40.933Z,26.67
2018-12-25T20:03:08.247Z,23.73
2018-12-25T20:05:54.930Z,21.37
2018-12-25T20:08:42.358Z,20.73
2018-12-25T20:11:29.270Z,21.07
2018-12-25T20:14:16.037Z,21.43
2018-12-25T20:17:02.699Z,22.30
2018-12-25T20:19:49.616Z,23.13
2018-12-25T20:22:37.817Z,23.07
2018-12-25T20:25:25.129Z,22.50
2018-12-25T20:28:12.050Z,24.60
2018-12-25T20:30:58.710Z,28.47
2018-12-25T20:33:45.394Z,25.17
2018-12-25T20:39:26.297Z,25.03
2018-12-25T20:48:14.330Z,22.73
2018-12-25T20:51:00.998Z,26.57
2018-12-25T20:53:47.659Z,31.10
2018-12-25T20:56:34.339Z,23.17
2018-12-25T20:59:20.991Z,21.07
2018-12-25T21:02:07.661Z,23.40
2018-12-25T21:04:54.341Z,23.40
2018-12-25T21:10:48.511Z,26.03
2018-12-25T21:13:35.173Z,24.60
2018-12-25T21:16:22.087Z,23.13
2018-12-25T21:19:08.758Z,23.63
2018-12-25T21:21:55.411Z,30.67
2018-12-25T21:24:42.087Z,33.47
2018-12-25T21:27:28.736Z,27.73
2018-12-25T21:29:56.077Z,26.57
2018-12-25T21:32:42.695Z,28.10
2018-12-25T21:35:29.369Z,23.57
2018-12-25T21:40:51.029Z,22.83
2018-12-25T21:46:25.957Z,26.77
2018-12-25T21:48:53.618Z,27.93
2018-12-25T21:51:20.953Z,25.23
2018-12-25T21:53:48.306Z,21.83
2018-12-25T21:56:34.986Z,24.23
2018-12-25T22:01:56.090Z,22.23
2018-12-25T22:04:23.397Z,21.40
2018-12-25T22:06:50.709Z,23.63
2018-12-25T22:09:37.398Z,29.83
2018-12-25T22:12:04.712Z,31.63
2018-12-25T22:14:32.120Z,24.17
2018-12-25T22:16:59.434Z,22.40
2018-12-25T22:19:26.908Z,27.30
2018-12-25T22:21:54.349Z,21.77
2018-12-25T22:24:21.680Z,21.07
2018-12-25T22:26:49.134Z,22.27
2018-12-25T22:29:16.698Z,22.00
2018-12-25T22:31:44.045Z,21.53
2018-12-25T22:34:11.430Z,19.67
2018-12-25T22:36:39.073Z,21.60
2018-12-25T22:39:06.394Z,21.00
2018-12-25T22:41:33.987Z,24.03
2018-12-25T22:44:01.318Z,23.07
2018-12-25T22:46:47.978Z,22.53
2018-12-25T22:49:15.463Z,21.80
2018-12-25T22:51:42.855Z,21.83
2018-12-25T22:54:10.161Z,21.40
2018-12-25T22:56:37.514Z,20.97
2018-12-25T22:59:04.977Z,20.93
2018-12-25T23:01:32.411Z,21.23
2018-12-25T23:03:59.722Z,19.83
2018-12-25T23:06:27.060Z,21.07
2018-12-25T23:09:10.560Z,21.37
2018-12-25T23:11:23.514Z,20.07
2018-12-25T23:13:50.842Z,21.57
2018-12-25T23:16:18.449Z,23.03
2018-12-25T23:18:45.762Z,21.60
2018-12-25T23:21:13.096Z,20.33
2018-12-25T23:23:40.488Z,20.47
2018-12-25T23:26:07.786Z,20.97
2018-12-25T23:28:35.102Z,20.13
2018-12-25T23:31:02.461Z,20.03
2018-12-25T23:33:30.195Z,20.00
2018-12-25T23:35:57.598Z,19.07
2018-12-25T23:38:24.916Z,19.90
2018-12-25T23:40:52.234Z,18.97
2018-12-25T23:43:19.647Z,20.03
2018-12-25T23:45:47.218Z,20.40
2018-12-25T23:48:14.599Z,20.87
2018-12-25T23:50:41.926Z,23.10
2018-12-25T23:53:09.250Z,25.93
2018-12-25T23:55:36.642Z,22.73
2018-12-25T23:58:03.958Z,23.27
